MOT weather

Minot International Airport
Minot, North Dakota, United States

Public forecast

Using degrees Fahrenheit for public forecast. Weather courtesy of forecast.io.

METAR (pilot weather report)

Retrieved 2019/09/23 16:54 UTC (39 minutes ago):

KMOT 231654Z 21008KT 10SM CLR 22/09 A2984 RMK AO2 SLP102 T02170089

TAF (pilot weather forecast)

Retrieved 2019/09/23 12:24 UTC (5 hours ago):

TAF KMOT 231120Z 2312/2412 23006KT P6SM SKC FM231800 20011KT P6SM FEW090 FEW250 FM240200 23009KT P6SM FEW070 FEW250 FM240400 26008KT P6SM FEW070 FEW250 FM240700 26007KT P6SM SCT070 BKN150